Time;durP1;ratioP1;P1;durP2;ratioP2;P2;SDS_P1;SDS_P2;PMS_P1;PMS_P2;Temp;Humidity;BMP_temperature;BMP_pressure;BME280_temperature;BME280_humidity;BME280_pressure;Samples;Min_cycle;Max_cycle;Signal;HPM_P1;HPM_P2
2022/10/08 00:00:45;;;;;;;1999.90;999.90;;;;;;;10.33;100.00;95115.63;5096601;28;20167;-58
2022/10/08 00:03:17;;;;;;;1999.90;999.90;;;;;;;10.33;100.00;95112.91;5097030;28;20173;-58
2022/10/08 00:05:43;;;;;;;1999.90;999.90;;;;;;;10.33;100.00;95112.91;5096443;28;20173;-59
2022/10/08 00:08:08;;;;;;;1999.90;999.90;;;;;;;10.32;100.00;95109.44;5096383;28;20640;-59
2022/10/08 00:10:35;;;;;;;1999.90;999.90;;;;;;;10.28;100.00;95113.38;5096334;28;20169;-58
2022/10/08 00:13:02;;;;;;;1999.90;999.90;;;;;;;10.24;100.00;95118.09;5096471;28;20177;-58
2022/10/08 00:15:28;;;;;;;1999.90;999.90;;;;;;;10.22;100.00;95112.25;5095956;28;20220;-58
2022/10/08 00:17:53;;;;;;;1999.90;999.90;;;;;;;10.19;100.00;95113.84;5096535;28;20176;-58
2022/10/08 00:20:20;;;;;;;1999.90;999.90;;;;;;;10.17;100.00;95110.00;5096753;28;20228;-57
2022/10/08 00:22:45;;;;;;;1999.90;999.90;;;;;;;10.16;100.00;95113.91;5096007;28;20226;-60
2022/10/08 00:25:10;;;;;;;1999.90;999.90;;;;;;;10.16;100.00;95116.63;5095863;28;20180;-68
2022/10/08 00:27:36;;;;;;;1999.90;999.90;;;;;;;10.14;100.00;95112.34;5095599;28;20168;-71
2022/10/08 00:30:05;;;;;;;1999.90;999.90;;;;;;;10.14;100.00;95115.06;5095700;28;20169;-70
2022/10/08 00:32:33;;;;;;;1999.90;999.90;;;;;;;10.13;100.00;95110.81;5095813;28;20173;-68
2022/10/08 00:34:58;;;;;;;1999.90;999.90;;;;;;;10.16;100.00;95116.63;5096359;28;20173;-69
2022/10/08 00:37:24;;;;;;;1999.90;999.90;;;;;;;10.13;100.00;95122.91;5095515;28;20200;-67
2022/10/08 00:39:50;;;;;;;1999.90;999.90;;;;;;;10.13;100.00;95117.44;5095418;28;20192;-70
2022/10/08 00:42:16;;;;;;;1999.90;999.90;;;;;;;10.10;100.00;95119.78;5095854;28;20668;-66
2022/10/08 00:45:00;;;;;;;1999.90;999.90;;;;;;;10.07;100.00;95115.19;5118661;22;20222;-65
2022/10/08 00:47:32;;;;;;;1999.90;999.90;;;;;;;10.06;100.00;95110.88;5055295;28;20173;-64
2022/10/08 00:50:00;;;;;;;1999.90;999.90;;;;;;;10.05;100.00;95109.34;5056030;28;20170;-64
2022/10/08 00:52:29;;;;;;;1999.90;999.90;;;;;;;10.05;100.00;95105.78;5056426;28;20181;-64
2022/10/08 00:54:56;;;;;;;1999.90;999.90;;;;;;;10.01;100.00;95105.84;5055240;28;20178;-65
2022/10/08 00:57:22;;;;;;;1999.90;999.90;;;;;;;9.99;100.00;95108.19;5055337;28;20259;-65
2022/10/08 00:59:48;;;;;;;1999.90;999.90;;;;;;;9.98;100.00;95123.03;5055149;28;20178;-66
2022/10/08 01:02:14;;;;;;;1999.90;999.90;;;;;;;9.96;100.00;95124.59;5054868;28;20244;-65
2022/10/08 01:04:41;;;;;;;1999.90;999.90;;;;;;;9.96;100.00;95117.22;5054942;28;20204;-65
2022/10/08 01:07:27;;;;;;;1999.90;999.90;;;;;;;9.95;100.00;95115.63;5055260;28;20178;-65
2022/10/08 01:10:06;;;;;;;1999.90;999.90;;;;;;;9.94;100.00;95118.78;5054825;28;20213;-65
2022/10/08 01:12:43;;;;;;;1999.90;999.90;;;;;;;9.92;100.00;95118.41;5055445;28;20174;-65
2022/10/08 01:15:30;;;;;;;1999.90;999.90;;;;;;;9.91;100.00;95112.19;5054660;28;20223;-65
2022/10/08 01:18:14;;;;;;;1999.90;999.90;;;;;;;9.91;100.00;95114.16;5054618;28;20180;-70
2022/10/08 01:21:01;;;;;;;1999.90;999.90;;;;;;;9.90;100.00;95116.09;5055329;28;20330;-65
2022/10/08 01:23:52;;;;;;;1999.90;999.90;;;;;;;9.91;100.00;95109.44;5054944;28;20181;-65
2022/10/08 01:26:39;;;;;;;1999.90;999.90;;;;;;;9.91;100.00;95098.53;5054541;28;20182;-64
2022/10/08 01:29:16;;;;;;;1999.90;999.90;;;;;;;9.94;100.00;95105.13;5054312;28;20170;-65
2022/10/08 01:31:46;;;;;;;1999.90;999.90;;;;;;;9.91;100.00;95095.81;5055123;28;20173;-66
2022/10/08 01:34:36;;;;;;;1999.90;999.90;;;;;;;9.91;100.00;95095.81;5054405;28;20227;-65
2022/10/08 01:37:04;;;;;;;1999.90;999.90;;;;;;;9.90;100.00;95094.28;5055280;28;20197;-65
2022/10/08 01:39:33;;;;;;;1999.90;999.90;;;;;;;9.92;100.00;95102.06;5054302;28;20170;-59
2022/10/08 01:42:02;;;;;;;1999.90;999.90;;;;;;;9.91;100.00;95101.28;5053927;28;20196;-60
2022/10/08 01:44:34;;;;;;;1999.90;999.90;;;;;;;9.90;100.00;95099.72;5054013;28;20271;-59
2022/10/08 01:47:04;;;;;;;1999.90;999.90;;;;;;;9.91;100.00;95097.78;5054124;28;20185;-60
2022/10/08 01:49:38;;;;;;;1999.90;999.90;;;;;;;9.88;100.00;95096.63;5054689;28;20235;-60
2022/10/08 01:52:11;;;;;;;1999.90;999.90;;;;;;;9.89;100.00;95098.19;5054677;28;20166;-60
2022/10/08 01:54:39;;;;;;;1999.90;999.90;;;;;;;9.91;100.00;95095.81;5055192;28;20237;-66
2022/10/08 01:57:09;;;;;;;1999.90;999.90;;;;;;;9.93;100.00;95098.94;5054457;28;20208;-71
2022/10/08 01:59:50;;;;;;;1999.90;999.90;;;;;;;9.92;100.00;95097.34;5054118;28;20197;-65
2022/10/08 02:02:20;;;;;;;1999.90;999.90;;;;;;;9.88;100.00;95091.16;5054493;28;20162;-64
2022/10/08 02:04:46;;;;;;;1999.90;999.90;;;;;;;9.87;100.00;95095.09;5053833;28;20257;-64
2022/10/08 02:07:18;;;;;;;1999.90;999.90;;;;;;;9.84;100.00;95095.88;5053651;28;20180;-64
2022/10/08 02:09:50;;;;;;;1999.90;999.90;;;;;;;9.86;100.00;95098.22;5053756;28;20184;-65
2022/10/08 02:12:17;;;;;;;1999.90;999.90;;;;;;;9.84;100.00;95090.44;5053796;28;20196;-64
2022/10/08 02:14:47;;;;;;;1999.90;999.90;;;;;;;9.86;100.00;95093.53;5053749;28;20219;-67
2022/10/08 02:17:39;;;;;;;1999.90;999.90;;;;;;;9.84;100.00;95084.97;5054436;28;20305;-64
2022/10/08 02:20:15;;;;;;;1999.90;999.90;;;;;;;9.80;100.00;95089.69;5054197;28;20173;-64
2022/10/08 02:23:00;;;;;;;1999.90;999.90;;;;;;;9.81;100.00;95085.78;5053543;28;20192;-65
2022/10/08 02:25:47;;;;;;;1999.90;999.90;;;;;;;9.80;100.00;95084.25;5054159;28;20223;-65
2022/10/08 02:28:23;;;;;;;1999.90;999.90;;;;;;;9.78;100.00;95073.00;5053893;28;20166;-65
2022/10/08 02:30:54;;;;;;;1999.90;999.90;;;;;;;9.78;100.00;95081.16;5053682;28;20178;-60
2022/10/08 02:33:30;;;;;;;1999.90;999.90;;;;;;;9.79;100.00;95082.72;5053353;28;20177;-68
2022/10/08 02:35:59;;;;;;;1999.90;999.90;;;;;;;9.82;100.00;95081.13;5053403;28;20275;-69
2022/10/08 02:38:48;;;;;;;1999.90;999.90;;;;;;;9.81;100.00;95085.78;5053379;28;20208;-66
2022/10/08 02:41:14;;;;;;;1999.90;999.90;;;;;;;9.83;100.00;95082.66;5054277;28;20614;-66
2022/10/08 02:43:46;;;;;;;1999.90;999.90;;;;;;;9.83;100.00;95082.66;5054041;28;20184;-66
2022/10/08 02:46:34;;;;;;;1999.90;999.90;;;;;;;9.83;100.00;95088.91;5053718;28;20222;-66
2022/10/08 02:49:09;;;;;;;1999.90;999.90;;;;;;;9.86;100.00;95082.63;5053628;28;20170;-66
2022/10/08 02:51:39;;;;;;;1999.90;999.90;;;;;;;9.85;100.00;95086.56;5054107;28;20607;-65
2022/10/08 02:54:09;;;;;;;1999.90;999.90;;;;;;;9.87;100.00;95084.19;5053318;28;20181;-59
2022/10/08 02:56:34;;;;;;;1999.90;999.90;;;;;;;9.87;100.00;95083.38;5053288;28;20218;-59
2022/10/08 02:59:00;;;;;;;1999.90;999.90;;;;;;;9.87;100.00;95091.56;5053190;28;20170;-60
2022/10/08 03:01:32;;;;;;;1999.90;999.90;;;;;;;9.89;100.00;95092.75;5053125;28;20177;-59
2022/10/08 03:04:07;;;;;;;1999.90;999.90;;;;;;;9.89;100.00;95092.75;5053457;28;20229;-60
2022/10/08 03:06:34;;;;;;;1999.90;999.90;;;;;;;9.90;100.00;95083.38;5053234;28;20162;-59
2022/10/08 03:09:01;;;;;;;1999.90;999.90;;;;;;;9.94;100.00;95091.50;5053314;28;20184;-59
2022/10/08 03:11:29;;;;;;;1999.90;999.90;;;;;;;9.95;100.00;95082.91;5053639;28;20184;-64
2022/10/08 03:13:57;;;;;;;1999.90;999.90;;;;;;;9.97;100.00;95080.56;5053238;28;20170;-64
2022/10/08 03:16:26;;;;;;;1999.90;999.90;;;;;;;9.97;100.00;95069.66;5052755;28;20274;-65
2022/10/08 03:18:52;;;;;;;1999.90;999.90;;;;;;;10.00;100.00;95071.56;5053203;28;20169;-65
2022/10/08 03:21:19;;;;;;;1999.90;999.90;;;;;;;9.98;100.00;95073.91;5053629;28;20173;-64
2022/10/08 03:23:44;;;;;;;1999.90;999.90;;;;;;;9.96;100.00;95079.03;5052734;28;20167;-65
2022/10/08 03:26:09;;;;;;;1999.90;999.90;;;;;;;9.97;100.00;95080.56;5053010;28;20185;-67
2022/10/08 03:28:38;;;;;;;1999.90;999.90;;;;;;;9.99;100.00;95110.16;5052889;28;20223;-64
2022/10/08 03:31:06;;;;;;;1999.90;999.90;;;;;;;9.99;100.00;95118.34;5056909;28;20601;-68
2022/10/08 03:33:32;;;;;;;1999.90;999.90;;;;;;;10.00;100.00;95115.22;5056876;28;20185;-69
2022/10/08 03:35:57;;;;;;;1999.90;999.90;;;;;;;10.00;100.00;95109.75;5057291;28;20275;-69
2022/10/08 03:38:23;;;;;;;1999.90;999.90;;;;;;;9.97;100.00;95118.75;5056451;28;20579;-70
2022/10/08 03:40:56;;;;;;;1999.90;999.90;;;;;;;9.93;100.00;95118.00;5056575;28;20174;-69
2022/10/08 03:43:30;;;;;;;1999.90;999.90;;;;;;;9.94;100.00;95126.97;5056532;28;20236;-69
2022/10/08 03:45:55;;;;;;;1999.90;999.90;;;;;;;9.97;100.00;95121.47;5056971;28;20233;-64
2022/10/08 03:48:21;;;;;;;1999.90;999.90;;;;;;;10.01;100.00;95122.22;5056781;28;20174;-59
2022/10/08 03:50:59;;;;;;;1999.90;999.90;;;;;;;10.04;100.00;95110.50;5035723;28;20197;-59
2022/10/08 03:53:26;;;;;;;1999.90;999.90;;;;;;;10.12;100.00;95115.91;5018918;28;20194;-59
2022/10/08 03:55:51;;;;;;;1999.90;999.90;;;;;;;10.10;100.00;95114.34;5018939;28;20207;-59
2022/10/08 03:58:18;;;;;;;1999.90;999.90;;;;;;;10.16;100.00;95111.19;5019398;28;20189;-60
2022/10/08 04:00:54;;;;;;;1999.90;999.90;;;;;;;10.18;100.00;95104.13;5018625;28;20186;-60
2022/10/08 04:03:19;;;;;;;1999.90;999.90;;;;;;;10.21;100.00;95097.88;5019288;28;20261;-68
2022/10/08 04:05:48;;;;;;;1999.90;999.90;;;;;;;10.23;100.00;95097.47;5018900;28;20330;-67
2022/10/08 04:08:14;;;;;;;1999.90;999.90;;;;;;;10.26;100.00;95093.91;5018879;28;20182;-66
2022/10/08 04:10:39;;;;;;;1999.90;999.90;;;;;;;10.35;100.00;95096.91;5019165;28;20210;-65
2022/10/08 04:13:04;;;;;;;1999.90;999.90;;;;;;;10.45;100.00;95093.28;5018557;28;20273;-66
2022/10/08 04:15:30;;;;;;;1999.90;999.90;;;;;;;10.48;100.00;95089.75;5018418;28;20249;-65
2022/10/08 04:17:55;;;;;;;1999.90;999.90;;;;;;;10.53;100.00;95092.78;5018493;28;20185;-66
2022/10/08 04:20:20;;;;;;;1999.90;999.90;;;;;;;10.54;100.00;95088.09;5018218;28;20262;-65
2022/10/08 04:22:47;;;;;;;1999.90;999.90;;;;;;;10.55;100.00;95086.91;5052526;28;20273;-64
2022/10/08 04:25:13;;;;;;;1999.90;999.90;;;;;;;10.53;100.00;95086.56;5055661;28;20227;-59
2022/10/08 04:27:39;;;;;;;1999.90;999.90;;;;;;;10.52;100.00;95079.56;5055376;28;20276;-59
2022/10/08 04:30:05;;;;;;;1999.90;999.90;;;;;;;10.49;100.00;95070.19;5055685;28;20220;-60
2022/10/08 04:32:31;;;;;;;1999.90;999.90;;;;;;;10.50;100.00;94828.03;5055689;28;20286;-59
2022/10/08 04:34:56;;;;;;;1999.90;999.90;;;;;;;10.50;100.00;94828.81;5055503;28;20227;-59
2022/10/08 04:37:21;;;;;;;1999.90;999.90;;;;;;;10.51;100.00;94816.69;5055538;28;20210;-59
2022/10/08 04:39:47;;;;;;;1999.90;999.90;;;;;;;10.53;100.00;94819.78;5055668;28;20171;-69
2022/10/08 04:42:12;;;;;;;1999.90;999.90;;;;;;;10.60;100.00;94807.97;5054850;28;20179;-72
2022/10/08 04:44:38;;;;;;;1999.90;999.90;;;;;;;10.63;100.00;94813.34;5055405;28;20228;-69
2022/10/08 04:47:03;;;;;;;1999.90;999.90;;;;;;;10.65;100.00;94802.78;5055883;28;20175;-69
2022/10/08 04:49:29;;;;;;;1999.90;999.90;;;;;;;10.63;100.00;94812.59;5056050;28;20181;-69
2022/10/08 04:51:54;;;;;;;1999.90;999.90;;;;;;;10.62;100.00;94821.97;5055217;28;20179;-70
2022/10/08 04:54:20;;;;;;;1999.90;999.90;;;;;;;10.65;100.00;94821.13;5055124;28;20228;-70
2022/10/08 04:56:46;;;;;;;1999.90;999.90;;;;;;;10.72;100.00;94812.81;5055004;28;20210;-68
2022/10/08 04:59:11;;;;;;;1999.90;999.90;;;;;;;10.78;100.00;94819.34;5055147;28;20238;-63
2022/10/08 05:01:37;;;;;;;1999.90;999.90;;;;;;;10.81;100.00;94823.97;5055460;28;20240;-67
2022/10/08 05:04:02;;;;;;;1999.90;999.90;;;;;;;10.80;100.00;94825.13;5054765;28;20196;-68
2022/10/08 05:06:29;;;;;;;1999.90;999.90;;;;;;;10.80;100.00;94831.38;5054737;28;20226;-68
2022/10/08 05:08:57;;;;;;;1999.90;999.90;;;;;;;10.81;100.00;94823.97;5055417;28;20178;-68
2022/10/08 05:11:24;;;;;;;1999.90;999.90;;;;;;;10.82;100.00;94830.97;5054971;28;20182;-68
2022/10/08 05:13:52;;;;;;;1999.90;999.90;;;;;;;10.82;100.00;94830.97;5055103;28;20266;-69
2022/10/08 05:16:18;;;;;;;1999.90;999.90;;;;;;;10.85;100.00;94825.44;5054715;28;20194;-68
2022/10/08 05:18:44;;;;;;;1999.90;999.90;;;;;;;10.90;100.00;94821.44;5054651;28;20181;-58
2022/10/08 05:21:15;;;;;;;1999.90;999.90;;;;;;;10.93;100.00;94820.63;5055170;28;20170;-63
2022/10/08 05:23:42;;;;;;;1999.90;999.90;;;;;;;10.95;100.00;94829.16;5054346;28;20197;-63
2022/10/08 05:26:22;;;;;;;1999.90;999.90;;;;;;;11.04;100.00;94815.72;5054539;28;20189;-62
2022/10/08 05:28:52;;;;;;;1999.90;999.90;;;;;;;11.10;100.00;94823.00;5054929;28;20201;-62
2022/10/08 05:31:18;;;;;;;1999.90;999.90;;;;;;;11.22;100.00;94816.91;5054149;28;20174;-63
2022/10/08 05:33:43;;;;;;;1999.90;999.90;;;;;;;11.35;100.00;94814.31;5054467;28;20179;-63
2022/10/08 05:36:16;;;;;;;1999.90;999.90;;;;;;;11.44;100.00;94811.78;5054478;28;20236;-62
2022/10/08 05:38:42;;;;;;;1999.90;999.90;;;;;;;11.55;100.00;94806.84;5054308;28;20186;-63
2022/10/08 05:41:22;;;;;;;1999.90;999.90;;;;;;;11.68;100.00;94815.97;5054096;28;20170;-62
2022/10/08 05:43:48;;;;;;;1999.90;999.90;;;;;;;11.83;100.00;94806.25;5054741;28;20257;-62
2022/10/08 05:46:15;;;;;;;1999.90;999.90;;;;;;;11.94;100.00;94815.75;5054052;28;20234;-62
2022/10/08 05:48:42;;;;;;;1999.90;999.90;;;;;;;12.01;100.00;94817.56;5054702;28;20176;-63
2022/10/08 05:51:10;;;;;;;1999.90;999.90;;;;;;;12.08;100.00;94812.72;5054097;28;20187;-64
2022/10/08 05:53:37;;;;;;;1999.90;999.90;;;;;;;12.15;100.00;94817.22;5053187;28;20266;-64
2022/10/08 05:56:06;;;;;;;1999.90;999.90;;;;;;;12.21;100.00;94813.56;5053845;28;20202;-60
2022/10/08 05:58:33;;;;;;;1999.90;999.90;;;;;;;12.33;100.00;94823.06;5053758;28;20703;-59
2022/10/08 06:01:01;;;;;;;1999.90;999.90;;;;;;;12.44;100.00;94824.34;5054061;28;20175;-60
2022/10/08 06:03:26;;;;;;;1999.90;999.90;;;;;;;12.56;100.00;94831.09;5053893;28;20215;-60
2022/10/08 06:05:53;;;;;;;1999.90;999.90;;;;;;;12.72;100.00;94829.09;5053938;28;20174;-59
2022/10/08 06:08:18;;;;;;;1999.90;999.90;;;;;;;12.91;100.00;94835.66;5053794;28;20188;-59
2022/10/08 06:10:50;;;;;;;1999.90;999.90;;;;;;;13.01;100.00;94851.84;5053611;28;20179;-59
2022/10/08 06:13:16;;;;;;;1999.90;999.90;;;;;;;13.13;100.00;94859.38;5054108;28;20187;-65
2022/10/08 06:15:41;;;;;;;1999.90;999.90;;;;;;;13.24;100.00;94875.53;5053725;28;20200;-66
2022/10/08 06:18:07;;;;;;;1999.90;999.90;;;;;;;13.25;100.00;94882.56;5053704;28;20268;-64
2022/10/08 06:20:35;;;;;;;1999.90;999.90;;;;;;;13.31;100.00;94894.56;5053696;28;20185;-64
2022/10/08 06:23:01;;;;;;;1999.90;999.90;;;;;;;13.36;100.00;94905.00;5053940;28;20216;-65
2022/10/08 06:25:26;;;;;;;1999.90;999.90;;;;;;;13.41;100.00;94915.44;5054247;28;20206;-66
2022/10/08 06:27:51;;;;;;;1999.90;999.90;;;;;;;13.51;100.00;94927.34;5053747;28;20170;-66
2022/10/08 06:30:17;;;;;;;1999.90;999.90;;;;;;;13.63;100.00;94935.63;5053554;28;20181;-62
2022/10/08 06:32:42;;;;;;;1999.90;999.90;;;;;;;13.75;100.00;94934.09;5053775;28;20181;-66
2022/10/08 06:35:08;;;;;;;1999.90;999.90;;;;;;;13.89;100.00;94948.22;5053477;28;20177;-61
2022/10/08 06:37:33;;;;;;;1999.90;999.90;;;;;;;14.15;100.00;94949.81;5054088;28;20193;-61
2022/10/08 06:39:58;;;;;;;1999.90;999.90;;;;;;;14.40;100.00;94955.38;5054053;28;20264;-62
2022/10/08 06:42:23;;;;;;;1999.90;999.90;;;;;;;14.68;100.00;94959.25;5053373;28;20263;-62
2022/10/08 06:44:49;;;;;;;1999.90;999.90;;;;;;;15.50;100.00;94953.41;5053236;28;20258;-61
2022/10/08 06:47:14;;;;;;;1999.90;999.90;;;;;;;16.63;100.00;94939.03;5053981;28;20606;-63
2022/10/08 06:49:39;;;;;;;1999.90;999.90;;;;;;;17.14;100.00;94942.91;5053441;28;20183;-62
2022/10/08 06:52:05;;;;;;;1999.90;999.90;;;;;;;17.70;100.00;94933.03;5053324;28;20170;-72
2022/10/08 06:54:30;;;;;;;1999.90;999.90;;;;;;;18.80;100.00;94905.50;5053496;28;20176;-76
2022/10/08 06:56:56;;;;;;;1999.90;999.90;;;;;;;20.03;100.00;94849.38;5053415;28;20214;-71
2022/10/08 06:59:21;;;;;;;1999.90;999.90;;;;;;;20.99;100.00;94810.38;5053410;28;20265;-71
2022/10/08 07:01:46;;;;;;;1999.90;999.90;;;;;;;21.81;100.00;94780.00;5053364;28;20265;-75
2022/10/08 07:04:12;;;;;;;1999.90;999.90;;;;;;;21.96;100.00;94716.69;5054901;28;20190;-71
2022/10/08 07:06:37;;;;;;;1999.90;999.90;;;;;;;22.18;100.00;94691.09;5057178;28;20170;-69
2022/10/08 07:09:03;;;;;;;1999.90;999.90;;;;;;;22.19;100.00;94698.91;5056970;28;20170;-59
2022/10/08 07:11:30;;;;;;;1999.90;999.90;;;;;;;22.25;100.00;94696.16;5057757;28;20178;-62
2022/10/08 07:13:56;;;;;;;1999.90;999.90;;;;;;;21.62;100.00;94730.75;5056862;28;20174;-63
2022/10/08 07:16:23;;;;;;;1999.90;999.90;;;;;;;20.93;100.00;94790.06;5056811;28;20209;-66
2022/10/08 07:18:50;;;;;;;1999.90;999.90;;;;;;;20.73;100.00;94812.25;5057026;28;20170;-63
2022/10/08 07:21:17;;;;;;;1999.90;999.90;;;;;;;20.26;100.00;94847.81;5056844;28;20213;-63
2022/10/08 07:23:43;;;;;;;1999.90;999.90;;;;;;;20.22;100.00;94869.41;5057269;28;20170;-64
2022/10/08 07:26:15;;;;;;;1999.90;999.90;;;;;;;19.76;100.00;94896.78;5057056;28;20177;-57
2022/10/08 07:28:42;;;;;;;1999.90;999.90;;;;;;;19.27;100.00;94929.75;5056991;28;20173;-66
2022/10/08 07:31:17;;;;;;;1999.90;999.90;;;;;;;19.07;100.00;94966.28;5056749;28;20177;-66
2022/10/08 07:33:42;;;;;;;1999.90;999.90;;;;;;;19.03;100.00;94987.06;5056592;28;20637;-64
2022/10/08 07:36:15;;;;;;;1999.90;999.90;;;;;;;19.13;100.00;94991.31;5056737;28;20194;-63
2022/10/08 07:38:41;;;;;;;1999.90;999.90;;;;;;;19.28;100.00;94987.44;5056620;28;20169;-66
2022/10/08 07:41:08;;;;;;;1999.90;999.90;;;;;;;19.46;100.00;94987.31;5056588;28;20178;-66
2022/10/08 07:43:34;;;;;;;1999.90;999.90;;;;;;;19.81;100.00;94984.03;5056451;28;20186;-65
2022/10/08 07:46:00;;;;;;;1999.90;999.90;;;;;;;19.96;100.00;94982.84;5056198;28;20313;-69
2022/10/08 07:48:28;;;;;;;1999.90;999.90;;;;;;;20.04;100.00;94974.94;5056305;28;20210;-61
2022/10/08 07:50:53;;;;;;;1999.90;999.90;;;;;;;19.99;100.00;94990.22;5056438;28;20174;-64
2022/10/08 07:53:19;;;;;;;1999.90;999.90;;;;;;;19.84;100.00;94994.94;5056847;28;20189;-65
2022/10/08 07:55:44;;;;;;;1999.90;999.90;;;;;;;19.62;100.00;95015.91;5057172;28;20288;-65
2022/10/08 07:58:09;;;;;;;1999.90;999.90;;;;;;;19.59;100.00;95039.00;5056298;28;20180;-66
2022/10/08 08:00:38;;;;;;;1999.90;999.90;;;;;;;19.58;100.00;95046.53;5056800;28;20265;-65
2022/10/08 08:03:03;;;;;;;1999.90;999.90;;;;;;;19.48;100.00;95051.34;5056686;28;20201;-65
2022/10/08 08:05:32;;;;;;;1999.90;999.90;;;;;;;19.48;100.00;95060.91;5056191;28;20551;-63
2022/10/08 08:07:57;;;;;;;1999.90;999.90;;;;;;;19.60;100.00;95063.47;5055825;28;20634;-63
2022/10/08 08:10:23;;;;;;;1999.90;999.90;;;;;;;19.62;100.00;95069.28;5056626;28;20244;-63
2022/10/08 08:12:48;;;;;;;1999.90;999.90;;;;;;;19.61;100.00;95080.84;5056601;28;20269;-62
2022/10/08 08:15:13;;;;;;;1999.90;999.90;;;;;;;19.67;100.00;95090.06;5056164;28;20170;-62
2022/10/08 08:17:39;;;;;;;1999.90;999.90;;;;;;;19.70;100.00;95091.88;5054617;28;20209;-62
2022/10/08 08:20:04;;;;;;;1999.90;999.90;;;;;;;19.77;100.00;95095.06;5056474;28;20174;-63
2022/10/08 08:22:30;;;;;;;1999.90;999.90;;;;;;;20.27;100.00;95080.31;5055455;28;20174;-67
2022/10/08 08:24:55;;;;;;;1999.90;999.90;;;;;;;22.72;100.00;94989.91;5056046;28;20186;-58
2022/10/08 08:27:21;;;;;;;1999.90;999.90;;;;;;;24.51;100.00;94823.25;5055549;28;20174;-61
2022/10/08 08:29:46;;;;;;;1999.90;999.90;;;;;;;24.01;100.00;94400.34;5056553;28;20174;-60
2022/10/08 08:32:11;;;;;;;1999.90;999.90;;;;;;;23.64;100.00;94724.19;5056330;28;20202;-59
2022/10/08 08:34:37;;;;;;;1999.90;999.90;;;;;;;23.18;100.00;94893.00;5055632;28;20228;-59
2022/10/08 08:37:03;;;;;;;1999.90;999.90;;;;;;;23.14;100.00;94925.91;5055264;28;20669;-62
2022/10/08 08:39:29;;;;;;;1999.90;999.90;;;;;;;23.06;100.00;94950.69;5055205;28;20182;-60
2022/10/08 08:42:13;;;;;;;1999.90;999.90;;;;;;;22.38;100.00;94994.31;5055545;28;20174;-65
2022/10/08 08:44:46;;;;;;;1999.90;999.90;;;;;;;22.21;100.00;95030.28;5055155;28;20224;-67
2022/10/08 08:47:21;;;;;;;1999.90;999.90;;;;;;;21.98;100.00;95061.88;5055992;28;20658;-68
2022/10/08 08:49:54;;;;;;;1999.90;999.90;;;;;;;21.71;100.00;95065.00;5055675;28;20185;-68
2022/10/08 08:52:25;;;;;;;1999.90;999.90;;;;;;;21.52;100.00;95029.56;5055227;28;20178;-68
2022/10/08 08:54:52;;;;;;;1999.90;999.90;;;;;;;21.42;100.00;95003.88;5055311;28;20170;-67
2022/10/08 08:57:45;;;;;;;1999.90;999.90;;;;;;;21.77;100.00;95026.94;5055255;28;20233;-65
2022/10/08 09:00:21;;;;;;;1999.90;999.90;;;;;;;21.75;100.00;95042.56;5054861;28;20181;-68
2022/10/08 09:03:06;;;;;;;1999.90;999.90;;;;;;;21.89;100.00;95048.06;5055650;28;20529;-65
2022/10/08 09:05:38;;;;;;;1999.90;999.90;;;;;;;22.06;100.00;95051.84;5047509;28;20221;-66
2022/10/08 09:08:15;;;;;;;1999.90;999.90;;;;;;;22.29;100.00;95069.63;5055560;28;20170;-72
2022/10/08 09:11:01;;;;;;;1999.90;999.90;;;;;;;22.23;100.00;95110.50;5055018;28;20725;-68
2022/10/08 09:13:38;;;;;;;1999.90;999.90;;;;;;;22.60;100.00;95110.75;5055263;28;20224;-67
2022/10/08 09:16:04;;;;;;;1999.90;999.90;;;;;;;22.83;100.00;95157.13;5054918;28;20200;-67
2022/10/08 09:18:31;;;;;;;1999.90;999.90;;;;;;;22.76;100.00;95157.53;5054747;28;20174;-59
2022/10/08 09:20:57;;;;;;;1999.90;999.90;;;;;;;22.83;100.00;95184.97;5054907;28;20252;-62
2022/10/08 09:23:25;;;;;;;1999.90;999.90;;;;;;;22.46;100.00;95206.97;5054923;28;20178;-62
2022/10/08 09:26:02;;;;;;;1999.90;999.90;;;;;;;22.37;100.00;95188.38;5054741;28;20227;-63
2022/10/08 09:28:49;;;;;;;1999.90;999.90;;;;;;;22.22;100.00;95226.59;5055026;28;20573;-62
2022/10/08 09:31:25;;;;;;;1999.90;999.90;;;;;;;22.20;100.00;95195.72;5054421;28;20214;-63
2022/10/08 09:34:05;;;;;;;1999.90;999.90;;;;;;;22.03;100.00;95219.72;5054925;28;20170;-64
2022/10/08 09:36:42;;;;;;;1999.90;999.90;;;;;;;21.93;100.00;95201.59;5054341;28;20201;-59
2022/10/08 09:39:27;;;;;;;1999.90;999.90;;;;;;;21.97;100.00;95182.69;5055231;28;20165;-68
2022/10/08 09:42:05;;;;;;;1999.90;999.90;;;;;;;22.16;100.00;95175.69;5054464;28;20181;-69
2022/10/08 09:44:50;;;;;;;1999.90;999.90;;;;;;;22.16;100.00;95206.28;5053867;28;20316;-69
2022/10/08 09:47:21;;;;;;;1999.90;999.90;;;;;;;21.82;100.00;95184.75;5054053;28;20178;-68
2022/10/08 09:50:20;;;;;;;1999.90;999.90;;;;;;;22.00;100.00;95148.38;5054284;28;20176;-68
2022/10/08 09:52:48;;;;;;;1999.90;999.90;;;;;;;22.30;100.00;95197.13;5054811;28;20219;-64
2022/10/08 09:55:30;;;;;;;1999.90;999.90;;;;;;;22.73;100.00;95219.78;5054320;28;20637;-61
2022/10/08 09:58:02;;;;;;;1999.90;999.90;;;;;;;22.54;100.00;95251.91;5054787;28;20178;-64
2022/10/08 10:00:36;;;;;;;1999.90;999.90;;;;;;;23.10;100.00;95265.34;5053801;28;20261;-63
2022/10/08 10:03:13;;;;;;;1999.90;999.90;;;;;;;23.33;100.00;95289.47;5053699;28;20169;-63
2022/10/08 10:05:39;;;;;;;1999.90;999.90;;;;;;;23.56;100.00;95321.94;5054399;28;20173;-64
2022/10/08 10:08:04;;;;;;;1999.90;999.90;;;;;;;24.04;100.00;95370.44;5053980;28;20165;-64
2022/10/08 10:10:37;;;;;;;1999.90;999.90;;;;;;;24.31;100.00;95428.59;5053803;28;20174;-65
2022/10/08 10:13:13;;;;;;;1999.90;999.90;;;;;;;24.30;100.00;95472.50;5054215;28;20170;-60
2022/10/08 10:15:51;;;;;;;1999.90;999.90;;;;;;;24.03;100.00;95452.63;5053955;28;20219;-68
2022/10/08 10:18:27;;;;;;;1999.90;999.90;;;;;;;24.14;100.00;95452.75;5053906;28;20176;-64
2022/10/08 10:21:00;;;;;;;1999.90;999.90;;;;;;;24.57;100.00;95474.06;5053456;28;20177;-65
2022/10/08 10:23:37;;;;;;;1999.90;999.90;;;;;;;24.31;100.00;95485.22;5053849;28;20196;-67
2022/10/08 10:26:14;;;;;;;1999.90;999.90;;;;;;;24.07;100.00;95470.72;5054153;28;20170;-65
2022/10/08 10:28:44;;;;;;;1999.90;999.90;;;;;;;23.85;100.00;95434.13;5053189;28;20178;-66
2022/10/08 10:31:19;;;;;;;1999.90;999.90;;;;;;;23.49;100.00;95389.28;5054611;28;20174;-65
2022/10/08 10:33:53;;;;;;;1999.90;999.90;;;;;;;23.13;100.00;95375.84;5054304;28;20228;-63
2022/10/08 10:36:21;;;;;;;1999.90;999.90;;;;;;;22.98;100.00;95336.09;5053153;28;20197;-62
2022/10/08 10:38:55;;;;;;;1999.90;999.90;;;;;;;22.75;100.00;95317.50;5052532;28;20269;-61
2022/10/08 10:41:29;;;;;;;1999.90;999.90;;;;;;;22.35;100.00;95288.31;5053426;28;20166;-63
2022/10/08 10:44:13;;;;;;;1999.90;999.90;;;;;;;21.94;100.00;95236.53;5053746;28;20169;-60
2022/10/08 10:46:43;;;;;;;1999.90;999.90;;;;;;;21.66;100.00;95173.31;5054485;28;20630;-62
2022/10/08 10:49:25;;;;;;;1999.90;999.90;;;;;;;21.54;100.00;95122.34;5053452;28;20169;-65
2022/10/08 10:52:19;;;;;;;1999.90;999.90;;;;;;;21.55;100.00;95107.19;5054038;28;20166;-65
2022/10/08 10:55:11;;;;;;;1999.90;999.90;;;;;;;21.46;100.00;95093.38;5052926;28;20162;-65
2022/10/08 10:58:01;;;;;;;1999.90;999.90;;;;;;;21.30;100.00;95079.22;5054411;28;20293;-65
2022/10/08 11:00:45;;;;;;;1999.90;999.90;;;;;;;21.22;100.00;95028.84;5053095;28;20236;-66
2022/10/08 11:03:41;;;;;;;1999.90;999.90;;;;;;;21.13;100.00;95009.50;5053562;28;20169;-66